sensor_id;sensor_type;location;lat;lon;timestamp;P1;durP1;ratioP1;P2;durP2;ratioP2
18125;SDS011;53956;52.442;13.284;2023-07-28T00:01:57;3.38;;;2.90;;
18125;SDS011;53956;52.442;13.284;2023-07-28T00:04:25;4.75;;;3.17;;
18125;SDS011;53956;52.442;13.284;2023-07-28T00:06:51;3.65;;;3.35;;
18125;SDS011;53956;52.442;13.284;2023-07-28T00:09:18;3.58;;;3.28;;
18125;SDS011;53956;52.442;13.284;2023-07-28T00:11:44;3.72;;;3.15;;
18125;SDS011;53956;52.442;13.284;2023-07-28T00:14:11;3.10;;;2.90;;
18125;SDS011;53956;52.442;13.284;2023-07-28T00:16:38;4.57;;;3.33;;
18125;SDS011;53956;52.442;13.284;2023-07-28T00:19:04;5.57;;;3.47;;
18125;SDS011;53956;52.442;13.284;2023-07-28T00:21:32;3.50;;;3.15;;
18125;SDS011;53956;52.442;13.284;2023-07-28T00:23:59;3.55;;;3.25;;
18125;SDS011;53956;52.442;13.284;2023-07-28T00:26:25;3.92;;;3.20;;
18125;SDS011;53956;52.442;13.284;2023-07-28T00:28:52;4.65;;;3.10;;
18125;SDS011;53956;52.442;13.284;2023-07-28T00:31:19;4.00;;;3.17;;
18125;SDS011;53956;52.442;13.284;2023-07-28T00:33:45;3.00;;;2.80;;
18125;SDS011;53956;52.442;13.284;2023-07-28T00:36:12;4.18;;;3.17;;
18125;SDS011;53956;52.442;13.284;2023-07-28T00:38:40;4.32;;;2.90;;
18125;SDS011;53956;52.442;13.284;2023-07-28T00:41:06;2.83;;;2.53;;
18125;SDS011;53956;52.442;13.284;2023-07-28T00:43:33;3.13;;;2.40;;
18125;SDS011;53956;52.442;13.284;2023-07-28T00:46:00;3.67;;;2.38;;
18125;SDS011;53956;52.442;13.284;2023-07-28T00:48:26;3.15;;;2.13;;
18125;SDS011;53956;52.442;13.284;2023-07-28T00:50:53;5.22;;;2.50;;
18125;SDS011;53956;52.442;13.284;2023-07-28T00:53:20;4.60;;;2.30;;
18125;SDS011;53956;52.442;13.284;2023-07-28T00:55:50;3.15;;;1.90;;
18125;SDS011;53956;52.442;13.284;2023-07-28T00:58:18;4.43;;;2.00;;
18125;SDS011;53956;52.442;13.284;2023-07-28T01:00:45;2.00;;;1.90;;
18125;SDS011;53956;52.442;13.284;2023-07-28T01:03:12;2.28;;;1.90;;
18125;SDS011;53956;52.442;13.284;2023-07-28T01:05:39;3.65;;;2.00;;
18125;SDS011;53956;52.442;13.284;2023-07-28T01:08:22;2.50;;;2.00;;
18125;SDS011;53956;52.442;13.284;2023-07-28T01:10:56;2.88;;;2.20;;
18125;SDS011;53956;52.442;13.284;2023-07-28T01:13:23;3.50;;;2.08;;
18125;SDS011;53956;52.442;13.284;2023-07-28T01:15:49;4.20;;;1.88;;
18125;SDS011;53956;52.442;13.284;2023-07-28T01:18:16;3.67;;;2.00;;
18125;SDS011;53956;52.442;13.284;2023-07-28T01:20:42;3.08;;;2.03;;
18125;SDS011;53956;52.442;13.284;2023-07-28T01:23:14;3.20;;;2.00;;
18125;SDS011;53956;52.442;13.284;2023-07-28T01:25:55;2.90;;;2.10;;
18125;SDS011;53956;52.442;13.284;2023-07-28T01:28:31;2.17;;;1.98;;
18125;SDS011;53956;52.442;13.284;2023-07-28T01:30:59;3.38;;;2.00;;
18125;SDS011;53956;52.442;13.284;2023-07-28T01:33:27;4.28;;;2.03;;
18125;SDS011;53956;52.442;13.284;2023-07-28T01:35:54;4.70;;;1.98;;
18125;SDS011;53956;52.442;13.284;2023-07-28T01:38:20;5.18;;;2.10;;
18125;SDS011;53956;52.442;13.284;2023-07-28T01:40:47;2.20;;;2.00;;
18125;SDS011;53956;52.442;13.284;2023-07-28T01:43:14;2.53;;;2.20;;
18125;SDS011;53956;52.442;13.284;2023-07-28T01:45:41;4.97;;;2.30;;
18125;SDS011;53956;52.442;13.284;2023-07-28T01:48:08;3.30;;;2.30;;
18125;SDS011;53956;52.442;13.284;2023-07-28T01:50:35;3.08;;;2.03;;
18125;SDS011;53956;52.442;13.284;2023-07-28T01:53:02;3.40;;;2.35;;
18125;SDS011;53956;52.442;13.284;2023-07-28T01:55:28;3.28;;;2.40;;
18125;SDS011;53956;52.442;13.284;2023-07-28T01:57:55;4.93;;;2.60;;
18125;SDS011;53956;52.442;13.284;2023-07-28T02:00:23;4.15;;;2.65;;
18125;SDS011;53956;52.442;13.284;2023-07-28T02:02:51;4.00;;;3.00;;
18125;SDS011;53956;52.442;13.284;2023-07-28T02:05:19;4.63;;;2.72;;
18125;SDS011;53956;52.442;13.284;2023-07-28T02:07:46;3.33;;;2.60;;
18125;SDS011;53956;52.442;13.284;2023-07-28T02:10:12;6.00;;;2.92;;
18125;SDS011;53956;52.442;13.284;2023-07-28T02:12:39;2.75;;;2.53;;
18125;SDS011;53956;52.442;13.284;2023-07-28T02:15:06;2.95;;;2.65;;
18125;SDS011;53956;52.442;13.284;2023-07-28T02:17:33;3.47;;;2.70;;
18125;SDS011;53956;52.442;13.284;2023-07-28T02:20:02;5.25;;;3.40;;
18125;SDS011;53956;52.442;13.284;2023-07-28T02:22:29;3.65;;;3.00;;
18125;SDS011;53956;52.442;13.284;2023-07-28T02:24:56;5.10;;;2.92;;
18125;SDS011;53956;52.442;13.284;2023-07-28T02:27:25;6.82;;;3.22;;
18125;SDS011;53956;52.442;13.284;2023-07-28T02:29:54;4.85;;;3.22;;
18125;SDS011;53956;52.442;13.284;2023-07-28T02:32:21;4.65;;;3.30;;
18125;SDS011;53956;52.442;13.284;2023-07-28T02:34:47;4.68;;;3.40;;
18125;SDS011;53956;52.442;13.284;2023-07-28T02:37:15;6.35;;;3.47;;
18125;SDS011;53956;52.442;13.284;2023-07-28T02:39:42;4.72;;;3.30;;
18125;SDS011;53956;52.442;13.284;2023-07-28T02:42:09;4.88;;;3.80;;
18125;SDS011;53956;52.442;13.284;2023-07-28T02:44:36;4.57;;;3.42;;
18125;SDS011;53956;52.442;13.284;2023-07-28T02:47:03;4.60;;;3.45;;
18125;SDS011;53956;52.442;13.284;2023-07-28T02:49:29;5.32;;;3.60;;
18125;SDS011;53956;52.442;13.284;2023-07-28T02:51:56;6.30;;;3.67;;
18125;SDS011;53956;52.442;13.284;2023-07-28T02:54:25;4.53;;;3.67;;
18125;SDS011;53956;52.442;13.284;2023-07-28T02:56:51;5.55;;;3.38;;
18125;SDS011;53956;52.442;13.284;2023-07-28T02:59:19;4.15;;;3.30;;
18125;SDS011;53956;52.442;13.284;2023-07-28T03:01:47;7.03;;;3.70;;
18125;SDS011;53956;52.442;13.284;2023-07-28T03:04:16;4.13;;;3.42;;
18125;SDS011;53956;52.442;13.284;2023-07-28T03:07:12;7.05;;;3.67;;
18125;SDS011;53956;52.442;13.284;2023-07-28T03:09:42;6.38;;;3.40;;
18125;SDS011;53956;52.442;13.284;2023-07-28T03:12:08;5.57;;;3.58;;
18125;SDS011;53956;52.442;13.284;2023-07-28T03:14:36;5.95;;;3.55;;
18125;SDS011;53956;52.442;13.284;2023-07-28T03:17:03;9.48;;;3.50;;
18125;SDS011;53956;52.442;13.284;2023-07-28T03:19:30;5.95;;;3.47;;
18125;SDS011;53956;52.442;13.284;2023-07-28T03:21:56;5.85;;;3.88;;
18125;SDS011;53956;52.442;13.284;2023-07-28T03:24:24;5.93;;;3.70;;
18125;SDS011;53956;52.442;13.284;2023-07-28T03:26:51;5.38;;;3.80;;
18125;SDS011;53956;52.442;13.284;2023-07-28T03:29:18;4.40;;;3.80;;
18125;SDS011;53956;52.442;13.284;2023-07-28T03:31:45;4.28;;;2.80;;
18125;SDS011;53956;52.442;13.284;2023-07-28T03:34:12;5.72;;;3.55;;
18125;SDS011;53956;52.442;13.284;2023-07-28T03:36:40;5.47;;;4.07;;
18125;SDS011;53956;52.442;13.284;2023-07-28T03:39:06;6.45;;;4.55;;
18125;SDS011;53956;52.442;13.284;2023-07-28T03:41:33;4.15;;;3.75;;
18125;SDS011;53956;52.442;13.284;2023-07-28T03:44:01;4.97;;;4.03;;
18125;SDS011;53956;52.442;13.284;2023-07-28T03:46:28;6.25;;;4.43;;
18125;SDS011;53956;52.442;13.284;2023-07-28T03:48:55;5.43;;;4.50;;
18125;SDS011;53956;52.442;13.284;2023-07-28T03:51:23;5.63;;;4.10;;
18125;SDS011;53956;52.442;13.284;2023-07-28T03:53:49;5.95;;;4.38;;
18125;SDS011;53956;52.442;13.284;2023-07-28T03:56:16;6.00;;;4.63;;
18125;SDS011;53956;52.442;13.284;2023-07-28T03:58:42;7.72;;;5.13;;
18125;SDS011;53956;52.442;13.284;2023-07-28T04:01:10;8.07;;;5.07;;
18125;SDS011;53956;52.442;13.284;2023-07-28T04:03:37;9.57;;;5.28;;
18125;SDS011;53956;52.442;13.284;2023-07-28T04:06:05;7.88;;;5.03;;
18125;SDS011;53956;52.442;13.284;2023-07-28T04:08:35;5.60;;;4.60;;
18125;SDS011;53956;52.442;13.284;2023-07-28T04:11:02;6.82;;;5.15;;
18125;SDS011;53956;52.442;13.284;2023-07-28T04:13:28;6.75;;;4.68;;
18125;SDS011;53956;52.442;13.284;2023-07-28T04:15:55;6.82;;;4.75;;
18125;SDS011;53956;52.442;13.284;2023-07-28T04:18:23;8.25;;;4.90;;
18125;SDS011;53956;52.442;13.284;2023-07-28T04:20:49;7.60;;;5.28;;
18125;SDS011;53956;52.442;13.284;2023-07-28T04:23:16;5.90;;;5.13;;
18125;SDS011;53956;52.442;13.284;2023-07-28T04:25:43;7.63;;;5.32;;
18125;SDS011;53956;52.442;13.284;2023-07-28T04:28:10;9.13;;;5.07;;
18125;SDS011;53956;52.442;13.284;2023-07-28T04:30:36;6.80;;;5.20;;
18125;SDS011;53956;52.442;13.284;2023-07-28T04:33:03;6.68;;;5.45;;
18125;SDS011;53956;52.442;13.284;2023-07-28T04:35:37;8.05;;;5.70;;
18125;SDS011;53956;52.442;13.284;2023-07-28T04:38:19;7.45;;;5.30;;
18125;SDS011;53956;52.442;13.284;2023-07-28T04:40:50;6.75;;;6.00;;
18125;SDS011;53956;52.442;13.284;2023-07-28T04:43:22;7.88;;;5.60;;
18125;SDS011;53956;52.442;13.284;2023-07-28T04:45:53;6.97;;;5.97;;
18125;SDS011;53956;52.442;13.284;2023-07-28T04:48:22;7.43;;;5.65;;
18125;SDS011;53956;52.442;13.284;2023-07-28T04:50:50;7.47;;;5.93;;
18125;SDS011;53956;52.442;13.284;2023-07-28T04:53:48;6.50;;;5.65;;
18125;SDS011;53956;52.442;13.284;2023-07-28T04:56:21;7.15;;;5.97;;
18125;SDS011;53956;52.442;13.284;2023-07-28T04:58:48;8.88;;;5.93;;
18125;SDS011;53956;52.442;13.284;2023-07-28T05:01:15;6.72;;;5.78;;
18125;SDS011;53956;52.442;13.284;2023-07-28T05:03:45;6.38;;;5.68;;
18125;SDS011;53956;52.442;13.284;2023-07-28T05:06:20;6.35;;;5.65;;
18125;SDS011;53956;52.442;13.284;2023-07-28T05:08:47;8.60;;;6.00;;
18125;SDS011;53956;52.442;13.284;2023-07-28T05:11:20;7.13;;;6.05;;
18125;SDS011;53956;52.442;13.284;2023-07-28T05:13:46;7.10;;;5.85;;
18125;SDS011;53956;52.442;13.284;2023-07-28T05:16:13;8.93;;;5.72;;
18125;SDS011;53956;52.442;13.284;2023-07-28T05:19:12;6.53;;;5.43;;
18125;SDS011;53956;52.442;13.284;2023-07-28T05:22:12;7.25;;;6.18;;
18125;SDS011;53956;52.442;13.284;2023-07-28T05:24:44;8.00;;;5.88;;
18125;SDS011;53956;52.442;13.284;2023-07-28T05:27:12;9.20;;;6.10;;
18125;SDS011;53956;52.442;13.284;2023-07-28T05:29:42;7.35;;;6.00;;
18125;SDS011;53956;52.442;13.284;2023-07-28T05:32:09;6.47;;;5.75;;
18125;SDS011;53956;52.442;13.284;2023-07-28T05:34:46;6.28;;;5.45;;
18125;SDS011;53956;52.442;13.284;2023-07-28T05:37:14;9.27;;;5.60;;
18125;SDS011;53956;52.442;13.284;2023-07-28T05:39:41;6.45;;;5.70;;
18125;SDS011;53956;52.442;13.284;2023-07-28T05:42:09;7.13;;;5.78;;
18125;SDS011;53956;52.442;13.284;2023-07-28T05:44:36;8.80;;;5.78;;
18125;SDS011;53956;52.442;13.284;2023-07-28T05:47:02;5.95;;;5.35;;
18125;SDS011;53956;52.442;13.284;2023-07-28T05:49:30;7.90;;;5.60;;
18125;SDS011;53956;52.442;13.284;2023-07-28T05:51:57;6.80;;;5.75;;
18125;SDS011;53956;52.442;13.284;2023-07-28T05:54:25;7.15;;;5.10;;
18125;SDS011;53956;52.442;13.284;2023-07-28T05:56:51;6.32;;;5.63;;
18125;SDS011;53956;52.442;13.284;2023-07-28T05:59:18;6.90;;;5.40;;
18125;SDS011;53956;52.442;13.284;2023-07-28T06:01:44;8.40;;;5.40;;
18125;SDS011;53956;52.442;13.284;2023-07-28T06:04:33;10.13;;;5.05;;
18125;SDS011;53956;52.442;13.284;2023-07-28T06:07:01;5.70;;;4.95;;
18125;SDS011;53956;52.442;13.284;2023-07-28T06:09:30;6.88;;;5.53;;
18125;SDS011;53956;52.442;13.284;2023-07-28T06:11:56;8.98;;;5.10;;
18125;SDS011;53956;52.442;13.284;2023-07-28T06:14:25;8.60;;;5.10;;
18125;SDS011;53956;52.442;13.284;2023-07-28T06:16:53;6.78;;;4.72;;
18125;SDS011;53956;52.442;13.284;2023-07-28T06:19:22;6.13;;;4.70;;
18125;SDS011;53956;52.442;13.284;2023-07-28T06:21:50;8.10;;;4.82;;
18125;SDS011;53956;52.442;13.284;2023-07-28T06:24:17;7.05;;;4.78;;
18125;SDS011;53956;52.442;13.284;2023-07-28T06:26:45;6.60;;;4.45;;
18125;SDS011;53956;52.442;13.284;2023-07-28T06:29:12;7.57;;;4.65;;
18125;SDS011;53956;52.442;13.284;2023-07-28T06:31:39;7.13;;;5.10;;
18125;SDS011;53956;52.442;13.284;2023-07-28T06:34:06;8.00;;;4.43;;
18125;SDS011;53956;52.442;13.284;2023-07-28T06:36:32;5.93;;;4.57;;
18125;SDS011;53956;52.442;13.284;2023-07-28T06:38:59;5.68;;;4.65;;
18125;SDS011;53956;52.442;13.284;2023-07-28T06:41:25;4.95;;;4.05;;
18125;SDS011;53956;52.442;13.284;2023-07-28T06:44:00;7.82;;;4.70;;
18125;SDS011;53956;52.442;13.284;2023-07-28T06:46:28;4.40;;;4.00;;
18125;SDS011;53956;52.442;13.284;2023-07-28T06:48:54;6.50;;;4.00;;
18125;SDS011;53956;52.442;13.284;2023-07-28T06:51:21;5.90;;;4.13;;
18125;SDS011;53956;52.442;13.284;2023-07-28T06:53:47;6.50;;;4.00;;
18125;SDS011;53956;52.442;13.284;2023-07-28T06:56:14;5.95;;;4.07;;
18125;SDS011;53956;52.442;13.284;2023-07-28T06:58:42;5.10;;;3.88;;
18125;SDS011;53956;52.442;13.284;2023-07-28T07:01:10;5.28;;;4.03;;
18125;SDS011;53956;52.442;13.284;2023-07-28T07:03:37;7.57;;;3.92;;
18125;SDS011;53956;52.442;13.284;2023-07-28T07:06:03;8.23;;;3.72;;
18125;SDS011;53956;52.442;13.284;2023-07-28T07:08:30;4.20;;;3.13;;
18125;SDS011;53956;52.442;13.284;2023-07-28T07:10:57;4.70;;;3.30;;
18125;SDS011;53956;52.442;13.284;2023-07-28T07:13:24;3.55;;;3.17;;
18125;SDS011;53956;52.442;13.284;2023-07-28T07:15:51;3.58;;;2.83;;
18125;SDS011;53956;52.442;13.284;2023-07-28T07:18:19;4.88;;;3.28;;
18125;SDS011;53956;52.442;13.284;2023-07-28T07:20:45;3.72;;;2.92;;
18125;SDS011;53956;52.442;13.284;2023-07-28T07:23:12;6.03;;;3.10;;
18125;SDS011;53956;52.442;13.284;2023-07-28T07:25:39;6.60;;;3.20;;
18125;SDS011;53956;52.442;13.284;2023-07-28T07:28:05;3.72;;;2.95;;
18125;SDS011;53956;52.442;13.284;2023-07-28T07:30:32;3.00;;;2.70;;
18125;SDS011;53956;52.442;13.284;2023-07-28T07:32:59;5.78;;;2.58;;
18125;SDS011;53956;52.442;13.284;2023-07-28T07:35:27;3.70;;;2.65;;
18125;SDS011;53956;52.442;13.284;2023-07-28T07:37:54;4.88;;;2.97;;
18125;SDS011;53956;52.442;13.284;2023-07-28T07:40:21;3.90;;;2.70;;
18125;SDS011;53956;52.442;13.284;2023-07-28T07:42:48;5.03;;;2.78;;
18125;SDS011;53956;52.442;13.284;2023-07-28T07:45:16;3.70;;;2.50;;
18125;SDS011;53956;52.442;13.284;2023-07-28T07:47:43;4.13;;;2.78;;
18125;SDS011;53956;52.442;13.284;2023-07-28T07:50:10;3.40;;;2.42;;
18125;SDS011;53956;52.442;13.284;2023-07-28T07:52:38;6.60;;;2.58;;
18125;SDS011;53956;52.442;13.284;2023-07-28T07:55:05;3.38;;;2.53;;
18125;SDS011;53956;52.442;13.284;2023-07-28T07:57:32;2.97;;;2.63;;
18125;SDS011;53956;52.442;13.284;2023-07-28T07:59:59;3.38;;;2.20;;
18125;SDS011;53956;52.442;13.284;2023-07-28T08:02:25;2.58;;;2.38;;
18125;SDS011;53956;52.442;13.284;2023-07-28T08:04:52;3.35;;;2.20;;
18125;SDS011;53956;52.442;13.284;2023-07-28T08:07:19;4.93;;;2.30;;
18125;SDS011;53956;52.442;13.284;2023-07-28T08:09:47;2.97;;;2.25;;
18125;SDS011;53956;52.442;13.284;2023-07-28T08:12:14;3.55;;;1.80;;
18125;SDS011;53956;52.442;13.284;2023-07-28T08:14:41;4.35;;;2.20;;
18125;SDS011;53956;52.442;13.284;2023-07-28T08:17:08;3.20;;;1.90;;
18125;SDS011;53956;52.442;13.284;2023-07-28T08:19:35;2.38;;;1.70;;
18125;SDS011;53956;52.442;13.284;2023-07-28T08:22:01;2.00;;;1.75;;
18125;SDS011;53956;52.442;13.284;2023-07-28T08:24:29;1.95;;;1.60;;
18125;SDS011;53956;52.442;13.284;2023-07-28T08:26:57;2.70;;;1.70;;
18125;SDS011;53956;52.442;13.284;2023-07-28T08:29:23;2.75;;;1.98;;
18125;SDS011;53956;52.442;13.284;2023-07-28T08:31:50;2.72;;;1.77;;
18125;SDS011;53956;52.442;13.284;2023-07-28T08:34:17;3.20;;;2.00;;
18125;SDS011;53956;52.442;13.284;2023-07-28T08:36:44;1.90;;;1.80;;
18125;SDS011;53956;52.442;13.284;2023-07-28T08:39:10;1.90;;;1.77;;
18125;SDS011;53956;52.442;13.284;2023-07-28T08:41:37;3.78;;;1.95;;
18125;SDS011;53956;52.442;13.284;2023-07-28T08:44:05;2.00;;;1.80;;
18125;SDS011;53956;52.442;13.284;2023-07-28T08:46:33;3.38;;;2.30;;
18125;SDS011;53956;52.442;13.284;2023-07-28T08:49:00;3.67;;;2.33;;
18125;SDS011;53956;52.442;13.284;2023-07-28T08:51:27;2.47;;;2.05;;
18125;SDS011;53956;52.442;13.284;2023-07-28T08:53:53;3.95;;;2.40;;
18125;SDS011;53956;52.442;13.284;2023-07-28T08:56:20;3.95;;;1.75;;
18125;SDS011;53956;52.442;13.284;2023-07-28T08:58:48;3.78;;;1.83;;
18125;SDS011;53956;52.442;13.284;2023-07-28T09:01:16;2.33;;;1.80;;
18125;SDS011;53956;52.442;13.284;2023-07-28T09:03:49;1.80;;;1.70;;
18125;SDS011;53956;52.442;13.284;2023-07-28T09:06:15;1.75;;;1.65;;
18125;SDS011;53956;52.442;13.284;2023-07-28T09:08:43;3.08;;;1.80;;
18125;SDS011;53956;52.442;13.284;2023-07-28T09:11:09;2.70;;;1.65;;
18125;SDS011;53956;52.442;13.284;2023-07-28T09:13:39;2.22;;;1.80;;
18125;SDS011;53956;52.442;13.284;2023-07-28T09:16:17;2.25;;;1.98;;
18125;SDS011;53956;52.442;13.284;2023-07-28T09:18:44;2.47;;;2.28;;
18125;SDS011;53956;52.442;13.284;2023-07-28T09:21:15;1.77;;;1.67;;
18125;SDS011;53956;52.442;13.284;2023-07-28T09:23:43;1.90;;;1.80;;
18125;SDS011;53956;52.442;13.284;2023-07-28T09:26:10;2.28;;;2.05;;
18125;SDS011;53956;52.442;13.284;2023-07-28T09:28:37;3.90;;;2.30;;
18125;SDS011;53956;52.442;13.284;2023-07-28T09:31:05;3.58;;;2.30;;
18125;SDS011;53956;52.442;13.284;2023-07-28T09:33:34;3.40;;;2.55;;
18125;SDS011;53956;52.442;13.284;2023-07-28T09:36:08;3.13;;;2.35;;
18125;SDS011;53956;52.442;13.284;2023-07-28T09:38:36;2.50;;;2.30;;
18125;SDS011;53956;52.442;13.284;2023-07-28T09:41:05;2.80;;;2.28;;
18125;SDS011;53956;52.442;13.284;2023-07-28T09:43:34;2.88;;;2.22;;
18125;SDS011;53956;52.442;13.284;2023-07-28T09:46:02;2.33;;;2.10;;
18125;SDS011;53956;52.442;13.284;2023-07-28T09:48:30;2.53;;;2.30;;
18125;SDS011;53956;52.442;13.284;2023-07-28T09:50:59;2.50;;;2.30;;
18125;SDS011;53956;52.442;13.284;2023-07-28T09:53:29;2.88;;;2.60;;
18125;SDS011;53956;52.442;13.284;2023-07-28T09:55:59;2.80;;;2.60;;
18125;SDS011;53956;52.442;13.284;2023-07-28T09:58:27;2.85;;;2.35;;
18125;SDS011;53956;52.442;13.284;2023-07-28T10:00:57;3.38;;;2.50;;
18125;SDS011;53956;52.442;13.284;2023-07-28T10:03:24;2.70;;;2.50;;
18125;SDS011;53956;52.442;13.284;2023-07-28T10:05:50;2.60;;;2.40;;
18125;SDS011;53956;52.442;13.284;2023-07-28T10:08:19;2.75;;;2.40;;
18125;SDS011;53956;52.442;13.284;2023-07-28T10:10:45;2.72;;;2.50;;
18125;SDS011;53956;52.442;13.284;2023-07-28T10:13:18;2.63;;;2.30;;
18125;SDS011;53956;52.442;13.284;2023-07-28T10:15:46;2.90;;;2.60;;
18125;SDS011;53956;52.442;13.284;2023-07-28T10:18:13;2.70;;;2.50;;
18125;SDS011;53956;52.442;13.284;2023-07-28T10:20:42;3.33;;;3.03;;
18125;SDS011;53956;52.442;13.284;2023-07-28T10:23:12;3.20;;;2.90;;
18125;SDS011;53956;52.442;13.284;2023-07-28T10:25:41;2.97;;;2.47;;
18125;SDS011;53956;52.442;13.284;2023-07-28T10:30:51;2.50;;;2.30;;
18125;SDS011;53956;52.442;13.284;2023-07-28T10:33:26;2.90;;;2.45;;
18125;SDS011;53956;52.442;13.284;2023-07-28T10:35:54;3.05;;;2.60;;
18125;SDS011;53956;52.442;13.284;2023-07-28T10:38:27;4.28;;;2.90;;
18125;SDS011;53956;52.442;13.284;2023-07-28T10:41:06;4.40;;;3.00;;
18125;SDS011;53956;52.442;13.284;2023-07-28T10:43:34;3.38;;;3.08;;
18125;SDS011;53956;52.442;13.284;2023-07-28T10:46:01;3.10;;;2.80;;
18125;SDS011;53956;52.442;13.284;2023-07-28T10:48:31;3.97;;;2.97;;
18125;SDS011;53956;52.442;13.284;2023-07-28T10:50:58;3.50;;;2.60;;
18125;SDS011;53956;52.442;13.284;2023-07-28T10:53:25;3.33;;;2.60;;
18125;SDS011;53956;52.442;13.284;2023-07-28T10:55:52;3.22;;;2.90;;
18125;SDS011;53956;52.442;13.284;2023-07-28T10:58:20;3.58;;;2.50;;
18125;SDS011;53956;52.442;13.284;2023-07-28T11:00:47;3.80;;;2.38;;
18125;SDS011;53956;52.442;13.284;2023-07-28T11:03:17;2.50;;;2.30;;
18125;SDS011;53956;52.442;13.284;2023-07-28T11:05:43;3.17;;;2.47;;
18125;SDS011;53956;52.442;13.284;2023-07-28T11:08:10;4.45;;;2.50;;
18125;SDS011;53956;52.442;13.284;2023-07-28T11:10:37;2.40;;;2.20;;
18125;SDS011;53956;52.442;13.284;2023-07-28T11:13:05;2.50;;;2.30;;
18125;SDS011;53956;52.442;13.284;2023-07-28T11:15:34;2.40;;;2.20;;
18125;SDS011;53956;52.442;13.284;2023-07-28T11:18:02;2.95;;;2.45;;
18125;SDS011;53956;52.442;13.284;2023-07-28T11:20:29;3.17;;;2.50;;
18125;SDS011;53956;52.442;13.284;2023-07-28T11:22:57;2.50;;;2.30;;
18125;SDS011;53956;52.442;13.284;2023-07-28T11:25:26;2.35;;;2.15;;
18125;SDS011;53956;52.442;13.284;2023-07-28T11:27:54;3.35;;;2.38;;
18125;SDS011;53956;52.442;13.284;2023-07-28T11:30:21;2.60;;;2.22;;
18125;SDS011;53956;52.442;13.284;2023-07-28T11:32:51;3.35;;;2.38;;
18125;SDS011;53956;52.442;13.284;2023-07-28T11:35:19;2.60;;;2.40;;
18125;SDS011;53956;52.442;13.284;2023-07-28T11:37:48;2.20;;;2.00;;
18125;SDS011;53956;52.442;13.284;2023-07-28T11:40:16;2.95;;;2.10;;
18125;SDS011;53956;52.442;13.284;2023-07-28T11:42:44;2.38;;;2.10;;
18125;SDS011;53956;52.442;13.284;2023-07-28T11:45:13;1.80;;;1.70;;
18125;SDS011;53956;52.442;13.284;2023-07-28T11:47:52;1.70;;;1.60;;
18125;SDS011;53956;52.442;13.284;2023-07-28T11:50:24;1.90;;;1.67;;
18125;SDS011;53956;52.442;13.284;2023-07-28T11:52:51;2.00;;;1.80;;
18125;SDS011;53956;52.442;13.284;2023-07-28T11:55:18;1.88;;;1.70;;
18125;SDS011;53956;52.442;13.284;2023-07-28T11:57:47;2.13;;;1.80;;
18125;SDS011;53956;52.442;13.284;2023-07-28T12:00:14;2.53;;;1.80;;
18125;SDS011;53956;52.442;13.284;2023-07-28T12:02:42;3.53;;;2.03;;
18125;SDS011;53956;52.442;13.284;2023-07-28T12:05:14;2.30;;;2.10;;
18125;SDS011;53956;52.442;13.284;2023-07-28T12:07:46;2.60;;;2.17;;
18125;SDS011;53956;52.442;13.284;2023-07-28T12:10:13;3.15;;;2.05;;
18125;SDS011;53956;52.442;13.284;2023-07-28T12:12:41;3.15;;;2.30;;
18125;SDS011;53956;52.442;13.284;2023-07-28T12:15:19;2.58;;;2.30;;
18125;SDS011;53956;52.442;13.284;2023-07-28T12:20:35;2.75;;;2.50;;
18125;SDS011;53956;52.442;13.284;2023-07-28T12:23:03;2.83;;;2.30;;
18125;SDS011;53956;52.442;13.284;2023-07-28T12:25:30;2.58;;;2.30;;
18125;SDS011;53956;52.442;13.284;2023-07-28T12:27:57;2.45;;;2.25;;
18125;SDS011;53956;52.442;13.284;2023-07-28T12:30:24;2.40;;;2.20;;
18125;SDS011;53956;52.442;13.284;2023-07-28T12:32:51;3.22;;;2.22;;
18125;SDS011;53956;52.442;13.284;2023-07-28T12:35:17;2.80;;;2.47;;
18125;SDS011;53956;52.442;13.284;2023-07-28T12:37:47;3.90;;;2.70;;
18125;SDS011;53956;52.442;13.284;2023-07-28T12:40:14;6.90;;;2.75;;
18125;SDS011;53956;52.442;13.284;2023-07-28T12:42:41;3.10;;;2.35;;
18125;SDS011;53956;52.442;13.284;2023-07-28T12:45:08;5.88;;;2.47;;
18125;SDS011;53956;52.442;13.284;2023-07-28T12:47:36;2.72;;;2.50;;
18125;SDS011;53956;52.442;13.284;2023-07-28T12:50:03;4.40;;;2.65;;
18125;SDS011;53956;52.442;13.284;2023-07-28T12:52:31;2.72;;;2.53;;
18125;SDS011;53956;52.442;13.284;2023-07-28T12:54:59;2.80;;;2.35;;
18125;SDS011;53956;52.442;13.284;2023-07-28T12:57:26;2.80;;;2.17;;
18125;SDS011;53956;52.442;13.284;2023-07-28T12:59:52;2.25;;;2.05;;
18125;SDS011;53956;52.442;13.284;2023-07-28T13:02:19;2.35;;;2.03;;
18125;SDS011;53956;52.442;13.284;2023-07-28T13:04:46;2.67;;;2.00;;
18125;SDS011;53956;52.442;13.284;2023-07-28T13:07:12;2.17;;;1.98;;
18125;SDS011;53956;52.442;13.284;2023-07-28T13:09:39;2.13;;;1.95;;
18125;SDS011;53956;52.442;13.284;2023-07-28T13:12:08;2.80;;;2.30;;
18125;SDS011;53956;52.442;13.284;2023-07-28T13:14:34;2.10;;;1.90;;
18125;SDS011;53956;52.442;13.284;2023-07-28T13:17:01;2.53;;;2.15;;
18125;SDS011;53956;52.442;13.284;2023-07-28T13:19:28;2.53;;;2.20;;
18125;SDS011;53956;52.442;13.284;2023-07-28T13:21:54;2.50;;;2.28;;
18125;SDS011;53956;52.442;13.284;2023-07-28T13:24:21;2.72;;;2.53;;
18125;SDS011;53956;52.442;13.284;2023-07-28T13:26:47;6.88;;;2.50;;
18125;SDS011;53956;52.442;13.284;2023-07-28T13:29:15;3.95;;;2.33;;
18125;SDS011;53956;52.442;13.284;2023-07-28T13:31:42;4.28;;;2.50;;
18125;SDS011;53956;52.442;13.284;2023-07-28T13:34:08;6.25;;;2.33;;
18125;SDS011;53956;52.442;13.284;2023-07-28T13:36:35;2.55;;;2.35;;
18125;SDS011;53956;52.442;13.284;2023-07-28T13:39:02;4.70;;;3.28;;
18125;SDS011;53956;52.442;13.284;2023-07-28T13:41:28;3.35;;;3.05;;
18125;SDS011;53956;52.442;13.284;2023-07-28T13:43:55;4.05;;;3.17;;
18125;SDS011;53956;52.442;13.284;2023-07-28T13:46:23;5.07;;;2.70;;
18125;SDS011;53956;52.442;13.284;2023-07-28T13:48:50;2.95;;;2.22;;
18125;SDS011;53956;52.442;13.284;2023-07-28T13:51:16;3.28;;;2.03;;
18125;SDS011;53956;52.442;13.284;2023-07-28T13:53:43;7.45;;;2.13;;
18125;SDS011;53956;52.442;13.284;2023-07-28T13:56:10;3.83;;;2.30;;
18125;SDS011;53956;52.442;13.284;2023-07-28T13:58:36;5.38;;;2.15;;
18125;SDS011;53956;52.442;13.284;2023-07-28T14:01:03;2.67;;;2.17;;
18125;SDS011;53956;52.442;13.284;2023-07-28T14:03:31;3.30;;;2.20;;
18125;SDS011;53956;52.442;13.284;2023-07-28T14:05:57;3.45;;;2.42;;
18125;SDS011;53956;52.442;13.284;2023-07-28T14:08:24;3.60;;;2.40;;
18125;SDS011;53956;52.442;13.284;2023-07-28T14:10:51;3.70;;;2.00;;
18125;SDS011;53956;52.442;13.284;2023-07-28T14:13:18;4.28;;;2.20;;
18125;SDS011;53956;52.442;13.284;2023-07-28T14:15:45;3.08;;;2.20;;
18125;SDS011;53956;52.442;13.284;2023-07-28T14:18:11;3.53;;;1.98;;
18125;SDS011;53956;52.442;13.284;2023-07-28T14:20:39;3.30;;;1.98;;
18125;SDS011;53956;52.442;13.284;2023-07-28T14:23:20;1.70;;;1.60;;
18125;SDS011;53956;52.442;13.284;2023-07-28T14:25:48;2.63;;;1.90;;
18125;SDS011;53956;52.442;13.284;2023-07-28T14:28:14;4.43;;;2.35;;
18125;SDS011;53956;52.442;13.284;2023-07-28T14:30:41;3.50;;;2.38;;
18125;SDS011;53956;52.442;13.284;2023-07-28T14:33:11;4.35;;;2.50;;
18125;SDS011;53956;52.442;13.284;2023-07-28T14:35:39;3.75;;;2.70;;
18125;SDS011;53956;52.442;13.284;2023-07-28T14:38:06;3.47;;;2.60;;
18125;SDS011;53956;52.442;13.284;2023-07-28T14:40:32;3.20;;;2.90;;
18125;SDS011;53956;52.442;13.284;2023-07-28T14:42:59;3.20;;;2.90;;
18125;SDS011;53956;52.442;13.284;2023-07-28T14:45:25;3.10;;;2.80;;